createdAt,value
2018-12-16T00:00:26.424Z,18.52
2018-12-16T00:02:55.846Z,21.48
2018-12-16T00:05:24.099Z,25.80
2018-12-16T00:07:52.325Z,22.45
2018-12-16T00:10:21.985Z,21.25
2018-12-16T00:12:51.517Z,20.43
2018-12-16T00:15:19.806Z,21.90
2018-12-16T00:17:49.434Z,23.65
2018-12-16T00:20:17.672Z,23.38
2018-12-16T00:22:47.334Z,22.07
2018-12-16T00:25:15.953Z,20.25
2018-12-16T00:27:45.717Z,23.73
2018-12-16T00:30:13.934Z,22.37
2018-12-16T00:32:43.734Z,22.25
2018-12-16T00:35:11.962Z,22.42
2018-12-16T00:37:41.525Z,21.57
2018-12-16T00:40:09.743Z,21.93
2018-12-16T00:42:39.597Z,19.17
2018-12-16T00:45:07.816Z,29.10
2018-12-16T00:47:37.381Z,20.45
2018-12-16T00:50:05.598Z,19.10
2018-12-16T00:52:36.652Z,22.42
2018-12-16T00:55:05.246Z,24.82
2018-12-16T00:57:35.014Z,20.90
2018-12-16T01:00:03.218Z,21.10
2018-12-16T01:02:39.155Z,19.10
2018-12-16T01:05:07.362Z,20.40
2018-12-16T01:07:37.137Z,21.52
2018-12-16T01:10:07.169Z,23.02
2018-12-16T01:12:36.730Z,23.47
2018-12-16T01:15:05.070Z,22.80
2018-12-16T01:17:34.833Z,23.35
2018-12-16T01:20:05.665Z,22.32
2018-12-16T01:22:35.966Z,25.23
2018-12-16T01:25:04.175Z,23.22
2018-12-16T01:27:34.099Z,20.50
2018-12-16T01:30:02.311Z,23.87
2018-12-16T01:32:32.600Z,22.80
2018-12-16T01:35:00.971Z,26.77
2018-12-16T01:37:31.237Z,21.93
2018-12-16T01:39:59.445Z,21.65
2018-12-16T01:42:29.026Z,24.27
2018-12-16T01:44:57.223Z,25.60
2018-12-16T01:47:25.763Z,25.92
2018-12-16T01:49:53.998Z,21.42
2018-12-16T01:52:23.561Z,25.25
2018-12-16T01:54:51.790Z,26.52
2018-12-16T01:57:20.081Z,21.62
2018-12-16T01:59:48.636Z,24.63
2018-12-16T02:02:16.852Z,28.17
2018-12-16T02:04:45.926Z,23.73
2018-12-16T02:07:15.570Z,25.97
2018-12-16T02:09:43.830Z,24.60
2018-12-16T02:12:13.676Z,27.62
2018-12-16T02:14:42.013Z,25.52
2018-12-16T02:17:12.241Z,24.37
2018-12-16T02:19:42.730Z,31.70
2018-12-16T02:22:13.557Z,25.45
2018-12-16T02:24:43.815Z,26.35
2018-12-16T02:27:14.113Z,23.22
2018-12-16T02:29:43.973Z,25.43
2018-12-16T02:32:13.512Z,23.87
2018-12-16T02:34:41.799Z,24.15
2018-12-16T02:37:10.164Z,25.02
2018-12-16T02:39:38.424Z,29.82
2018-12-16T02:42:06.626Z,30.82
2018-12-16T02:44:34.869Z,25.27
2018-12-16T02:47:04.816Z,25.25
2018-12-16T02:49:33.183Z,28.50
2018-12-16T02:52:01.528Z,24.37
2018-12-16T02:54:30.290Z,28.70
2018-12-16T02:56:58.521Z,26.90
2018-12-16T02:59:26.774Z,28.65
2018-12-16T03:01:55.104Z,21.73
2018-12-16T03:04:23.369Z,24.43
2018-12-16T03:06:51.921Z,26.60
2018-12-16T03:09:20.316Z,26.82
2018-12-16T03:11:49.277Z,30.25
2018-12-16T03:14:17.493Z,28.10
2018-12-16T03:16:47.264Z,28.42
2018-12-16T03:19:15.598Z,26.37
2018-12-16T03:21:45.867Z,27.25
2018-12-16T03:24:14.144Z,26.30
2018-12-16T03:26:43.811Z,26.15
2018-12-16T03:29:14.040Z,26.80
2018-12-16T03:31:42.296Z,23.92
2018-12-16T03:34:10.503Z,26.42
2018-12-16T03:36:39.281Z,25.08
2018-12-16T03:39:07.491Z,29.95
2018-12-16T03:41:37.766Z,28.70
2018-12-16T03:44:06.041Z,25.88
2018-12-16T03:46:35.648Z,29.63
2018-12-16T03:49:03.869Z,28.45
2018-12-16T03:51:33.433Z,31.50
2018-12-16T03:54:01.644Z,27.02
2018-12-16T03:56:31.469Z,28.20
2018-12-16T03:59:12.926Z,31.25
2018-12-16T04:01:41.186Z,28.50
2018-12-16T04:04:09.429Z,25.82
2018-12-16T04:06:39.154Z,30.32
2018-12-16T04:09:07.838Z,23.52
2018-12-16T04:11:38.808Z,31.23
2018-12-16T04:14:07.009Z,30.75
2018-12-16T04:16:36.465Z,30.95
2018-12-16T04:19:04.679Z,29.63
2018-12-16T04:21:34.354Z,25.62
2018-12-16T04:24:02.681Z,30.50
2018-12-16T04:26:31.631Z,32.63
2018-12-16T04:28:59.936Z,33.50
2018-12-16T04:31:28.156Z,28.35
2018-12-16T04:33:57.101Z,31.42
2018-12-16T04:36:25.307Z,32.78
2018-12-16T04:38:53.554Z,31.75
2018-12-16T04:41:23.198Z,30.48
2018-12-16T04:43:51.425Z,27.02
2018-12-16T04:46:20.954Z,25.32
2018-12-16T04:48:49.182Z,26.62
2018-12-16T04:51:17.394Z,25.50
2018-12-16T04:53:45.767Z,27.13
2018-12-16T04:56:13.973Z,27.20
2018-12-16T04:58:42.253Z,25.88
2018-12-16T05:01:11.782Z,25.50
2018-12-16T05:03:40.024Z,27.25
2018-12-16T05:06:08.361Z,25.68
2018-12-16T05:08:36.739Z,27.37
2018-12-16T05:11:05.094Z,24.90
2018-12-16T05:13:33.354Z,22.50
2018-12-16T05:16:02.878Z,24.43
2018-12-16T05:18:31.113Z,23.02
2018-12-16T05:21:00.638Z,26.00
2018-12-16T05:23:28.891Z,26.02
2018-12-16T05:25:57.094Z,22.40
2018-12-16T05:28:25.330Z,25.48
2018-12-16T05:30:53.534Z,22.62
2018-12-16T05:33:21.900Z,22.45
2018-12-16T05:35:52.123Z,23.98
2018-12-16T05:38:20.957Z,21.45
2018-12-16T05:40:50.476Z,21.80
2018-12-16T05:43:18.866Z,21.25
2018-12-16T05:45:48.493Z,19.05
2018-12-16T05:48:16.697Z,20.60
2018-12-16T05:50:45.816Z,23.18
2018-12-16T05:53:14.374Z,22.65
2018-12-16T05:55:43.872Z,23.73
2018-12-16T05:58:12.088Z,23.83
2018-12-16T06:00:40.423Z,20.90
2018-12-16T06:03:08.785Z,21.27
2018-12-16T06:05:37.175Z,20.05
2018-12-16T06:08:05.377Z,21.45
2018-12-16T06:10:33.624Z,21.90
2018-12-16T06:13:02.002Z,20.08
2018-12-16T06:15:31.575Z,18.15
2018-12-16T06:17:59.774Z,19.95
2018-12-16T06:20:28.024Z,19.32
2018-12-16T06:22:56.225Z,21.55
2018-12-16T06:25:24.506Z,21.73
2018-12-16T06:27:52.775Z,22.30
2018-12-16T06:30:21.515Z,21.10
2018-12-16T06:32:51.160Z,20.00
2018-12-16T06:35:19.395Z,20.85
2018-12-16T06:37:48.933Z,19.57
2018-12-16T06:40:17.154Z,21.55
2018-12-16T06:42:47.353Z,22.37
2018-12-16T06:45:15.576Z,19.77
2018-12-16T06:47:45.428Z,18.48
2018-12-16T06:50:14.006Z,18.02
2018-12-16T06:52:43.527Z,18.87
2018-12-16T06:55:11.993Z,21.20
2018-12-16T06:57:41.694Z,18.55
2018-12-16T07:00:09.955Z,21.27
2018-12-16T07:02:39.881Z,21.10
2018-12-16T07:05:08.086Z,20.40
2018-12-16T07:07:38.336Z,22.45
2018-12-16T07:10:06.639Z,22.73
2018-12-16T07:12:36.195Z,22.40
2018-12-16T07:15:05.064Z,25.48
2018-12-16T07:17:35.069Z,24.00
2018-12-16T07:20:03.762Z,20.40
2018-12-16T07:22:33.729Z,22.15
2018-12-16T07:25:02.072Z,20.02
2018-12-16T07:27:32.335Z,21.97
2018-12-16T07:30:00.596Z,21.73
2018-12-16T07:32:30.872Z,21.05
2018-12-16T07:34:59.092Z,22.95
2018-12-16T07:37:27.327Z,22.65
2018-12-16T07:39:56.175Z,20.97
2018-12-16T07:42:25.832Z,23.32
2018-12-16T07:44:54.044Z,24.30
2018-12-16T07:47:23.264Z,22.50
2018-12-16T07:49:51.833Z,24.25
2018-12-16T07:52:20.080Z,21.75
2018-12-16T07:54:48.302Z,23.15
2018-12-16T07:57:16.536Z,21.65
2018-12-16T07:59:44.743Z,22.82
2018-12-16T08:02:13.004Z,23.32
2018-12-16T08:04:41.215Z,25.50
2018-12-16T08:07:09.466Z,24.85
2018-12-16T08:09:37.672Z,21.60
2018-12-16T08:12:07.353Z,21.07
2018-12-16T08:14:35.558Z,23.70
2018-12-16T08:17:03.760Z,24.02
2018-12-16T08:19:32.014Z,22.90
2018-12-16T08:22:01.560Z,24.32
2018-12-16T08:24:29.927Z,25.52
2018-12-16T08:26:58.150Z,25.02
2018-12-16T08:29:26.389Z,25.32
2018-12-16T08:31:54.598Z,25.00
2018-12-16T08:34:22.974Z,23.95
2018-12-16T08:36:52.687Z,21.55
2018-12-16T08:39:20.921Z,25.27
2018-12-16T08:41:51.170Z,25.85
2018-12-16T08:44:19.397Z,20.35
2018-12-16T08:46:48.869Z,25.65
2018-12-16T08:49:17.106Z,24.35
2018-12-16T08:51:46.837Z,22.58
2018-12-16T08:54:15.088Z,27.37
2018-12-16T08:56:43.413Z,24.07
2018-12-16T08:59:11.669Z,22.67
2018-12-16T09:01:41.294Z,25.32
2018-12-16T09:04:09.742Z,23.70
2018-12-16T09:06:39.175Z,24.57
2018-12-16T09:09:07.817Z,26.12
2018-12-16T09:11:38.036Z,28.85
2018-12-16T09:14:06.286Z,25.52
2018-12-16T09:16:35.809Z,24.98
2018-12-16T09:19:04.067Z,27.40
2018-12-16T09:21:32.430Z,29.65
2018-12-16T09:24:00.659Z,24.05
2018-12-16T09:26:30.569Z,27.13
2018-12-16T09:28:58.830Z,25.62
2018-12-16T09:31:28.535Z,31.50
2018-12-16T09:33:56.801Z,29.70
2018-12-16T09:36:26.458Z,31.95
2018-12-16T09:38:54.671Z,28.17
2018-12-16T09:41:24.228Z,31.00
2018-12-16T09:43:52.453Z,28.27
2018-12-16T09:46:22.009Z,31.57
2018-12-16T09:48:50.223Z,34.13
2018-12-16T09:51:18.488Z,31.25
2018-12-16T09:53:46.685Z,34.65
2018-12-16T09:56:14.920Z,32.35
2018-12-16T09:58:43.266Z,33.28
2018-12-16T10:01:11.506Z,40.48
2018-12-16T10:03:39.834Z,35.58
2018-12-16T10:06:09.302Z,33.73
2018-12-16T10:08:37.554Z,30.12
2018-12-16T10:11:07.217Z,28.77
2018-12-16T10:13:35.438Z,33.10
2018-12-16T10:16:03.688Z,33.13
2018-12-16T10:18:32.013Z,41.42
2018-12-16T10:21:00.277Z,36.48
2018-12-16T10:23:28.609Z,39.65
2018-12-16T10:25:56.867Z,39.42
2018-12-16T10:28:25.219Z,36.20
2018-12-16T10:30:54.970Z,38.02
2018-12-16T10:33:23.221Z,37.48
2018-12-16T10:35:53.905Z,36.90
2018-12-16T10:38:22.177Z,36.75
2018-12-16T10:40:51.834Z,36.45
2018-12-16T10:43:20.054Z,41.45
2018-12-16T10:45:48.306Z,40.60
2018-12-16T10:48:16.543Z,42.08
2018-12-16T10:50:44.919Z,40.73
2018-12-16T10:53:13.198Z,39.35
2018-12-16T10:55:42.812Z,38.92
2018-12-16T10:58:11.146Z,33.78
2018-12-16T11:00:46.626Z,34.45
2018-12-16T11:03:15.068Z,41.65
2018-12-16T11:05:43.651Z,38.95
2018-12-16T11:08:11.853Z,38.45
2018-12-16T11:10:41.594Z,35.38
2018-12-16T11:13:10.250Z,32.00
2018-12-16T11:15:39.782Z,31.90
2018-12-16T11:18:08.188Z,40.00
2018-12-16T11:20:36.510Z,37.25
2018-12-16T11:23:04.767Z,41.05
2018-12-16T11:25:33.666Z,33.42
2018-12-16T11:28:02.027Z,30.75
2018-12-16T11:30:31.553Z,33.48
2018-12-16T11:32:59.935Z,34.90
2018-12-16T11:35:28.140Z,35.90
2018-12-16T11:37:56.446Z,42.67
2018-12-16T11:40:24.649Z,41.58
2018-12-16T11:42:52.995Z,40.00
2018-12-16T11:45:22.530Z,36.65
2018-12-16T11:47:52.293Z,40.67
2018-12-16T11:50:20.507Z,36.70
2018-12-16T11:52:49.957Z,36.20
2018-12-16T11:55:18.152Z,36.58
2018-12-16T11:57:47.709Z,38.35
2018-12-16T12:00:15.918Z,44.95
2018-12-16T12:02:45.574Z,39.18
2018-12-16T12:05:14.002Z,42.00
2018-12-16T12:07:43.560Z,45.85
2018-12-16T12:10:11.894Z,45.63
2018-12-16T12:12:41.545Z,43.48
2018-12-16T12:15:09.774Z,34.85
2018-12-16T12:17:39.309Z,44.90
2018-12-16T12:20:07.543Z,40.92
2018-12-16T12:22:37.578Z,37.95
2018-12-16T12:25:06.533Z,37.28
2018-12-16T12:27:36.454Z,39.80
2018-12-16T12:30:06.190Z,39.33
2018-12-16T12:32:36.133Z,44.20
2018-12-16T12:35:05.262Z,46.00
2018-12-16T12:37:35.298Z,39.75
2018-12-16T12:40:04.858Z,47.27
2018-12-16T12:42:34.582Z,44.60
2018-12-16T12:45:02.817Z,40.17
2018-12-16T12:47:33.058Z,37.20
2018-12-16T12:50:01.303Z,38.60
2018-12-16T12:52:31.534Z,35.70
2018-12-16T12:54:59.791Z,31.40
2018-12-16T12:57:29.423Z,34.33
2018-12-16T12:59:57.780Z,33.55
2018-12-16T13:02:27.512Z,34.40
2018-12-16T13:04:55.769Z,36.75
2018-12-16T13:07:23.991Z,36.28
2018-12-16T13:09:52.242Z,32.70
2018-12-16T13:12:21.879Z,35.80
2018-12-16T13:14:50.125Z,39.20
2018-12-16T13:17:18.342Z,36.83
2018-12-16T13:19:46.581Z,34.38
2018-12-16T13:22:16.218Z,41.80
2018-12-16T13:24:56.092Z,36.15
2018-12-16T13:27:25.630Z,39.27
2018-12-16T13:29:53.893Z,35.13
2018-12-16T13:32:23.533Z,39.18
2018-12-16T13:34:51.912Z,35.20
2018-12-16T13:37:21.441Z,33.05
2018-12-16T13:39:49.653Z,42.38
2018-12-16T13:42:17.998Z,40.70
2018-12-16T13:44:46.205Z,38.15
2018-12-16T13:47:15.880Z,36.10
2018-12-16T13:49:44.102Z,40.17
2018-12-16T13:52:12.330Z,36.85
2018-12-16T13:54:40.602Z,39.27
2018-12-16T13:57:09.426Z,42.38
2018-12-16T13:59:37.630Z,37.17
2018-12-16T14:02:07.194Z,38.92
2018-12-16T14:04:35.623Z,40.65
2018-12-16T14:07:03.873Z,42.62
2018-12-16T14:09:32.204Z,38.28
2018-12-16T14:12:01.758Z,37.78
2018-12-16T14:14:30.280Z,37.73
2018-12-16T14:16:59.738Z,37.95
2018-12-16T14:19:27.946Z,39.63
2018-12-16T14:21:56.174Z,41.60
2018-12-16T14:24:24.371Z,39.23
2018-12-16T14:26:53.926Z,43.13
2018-12-16T14:29:22.158Z,38.15
2018-12-16T14:31:51.725Z,36.98
2018-12-16T14:34:19.941Z,41.80
2018-12-16T14:36:48.170Z,35.05
2018-12-16T14:39:16.370Z,41.28
2018-12-16T14:41:46.437Z,36.77
2018-12-16T14:44:14.642Z,40.88
2018-12-16T14:46:42.881Z,38.70
2018-12-16T14:49:11.076Z,33.73
2018-12-16T14:51:40.741Z,34.43
2018-12-16T14:54:08.954Z,34.98
2018-12-16T14:56:39.210Z,35.52
2018-12-16T14:59:07.422Z,42.30
2018-12-16T15:01:36.364Z,34.20
2018-12-16T15:04:04.686Z,42.35
2018-12-16T15:06:32.935Z,35.25
2018-12-16T15:09:01.139Z,33.67
2018-12-16T15:11:31.408Z,36.60
2018-12-16T15:13:59.651Z,39.95
2018-12-16T15:16:27.897Z,38.23
2018-12-16T15:18:56.247Z,37.80
2018-12-16T15:21:25.894Z,42.33
2018-12-16T15:23:54.135Z,44.67
2018-12-16T15:26:22.353Z,51.48
2018-12-16T15:28:50.594Z,41.20
2018-12-16T15:31:20.219Z,39.33
2018-12-16T15:33:48.446Z,36.77
2018-12-16T15:36:17.889Z,39.78
2018-12-16T15:38:46.221Z,39.95
2018-12-16T15:41:14.450Z,43.78
2018-12-16T15:43:42.698Z,45.90
2018-12-16T15:46:10.902Z,42.03
2018-12-16T15:48:39.160Z,45.85
2018-12-16T15:51:07.371Z,43.83
2018-12-16T15:53:35.631Z,52.17
2018-12-16T15:56:09.252Z,40.60
2018-12-16T15:58:34.234Z,44.53
2018-12-16T16:01:02.514Z,60.83
2018-12-16T16:03:31.386Z,50.08
2018-12-16T16:06:00.923Z,63.00
2018-12-16T16:08:29.173Z,47.23
2018-12-16T16:10:58.711Z,54.23
2018-12-16T16:13:26.954Z,49.15
2018-12-16T16:15:56.702Z,46.18
2018-12-16T16:18:25.002Z,40.83
2018-12-16T16:20:54.813Z,47.13
2018-12-16T16:23:23.059Z,45.28
2018-12-16T16:25:52.590Z,58.73
2018-12-16T16:28:21.135Z,65.47
2018-12-16T16:30:49.403Z,60.33
2018-12-16T16:33:18.146Z,46.80
2018-12-16T16:35:47.816Z,44.67
2018-12-16T16:38:16.149Z,52.90
2018-12-16T16:40:44.510Z,60.65
2018-12-16T16:43:12.722Z,61.80
2018-12-16T16:45:40.958Z,56.20
2018-12-16T16:48:09.265Z,67.62
2018-12-16T16:50:37.726Z,48.35
2018-12-16T16:53:05.975Z,61.13
2018-12-16T16:55:34.229Z,53.23
2018-12-16T16:58:02.469Z,54.10
2018-12-16T17:00:30.711Z,50.10
2018-12-16T17:02:58.946Z,58.25
2018-12-16T17:05:27.173Z,41.08
2018-12-16T17:07:55.415Z,69.67
2018-12-16T17:10:23.658Z,65.40
2018-12-16T17:12:51.979Z,54.08
2018-12-16T17:15:21.635Z,64.97
2018-12-16T17:17:51.186Z,64.70
2018-12-16T17:20:19.412Z,63.80
2018-12-16T17:22:49.045Z,44.53
2018-12-16T17:25:17.272Z,45.67
2018-12-16T17:27:46.903Z,55.43
2018-12-16T17:30:15.142Z,64.47
2018-12-16T17:32:44.662Z,48.30
2018-12-16T17:35:12.893Z,48.92
2018-12-16T17:37:42.624Z,46.10
2018-12-16T17:40:10.853Z,53.02
2018-12-16T17:42:40.379Z,73.55
2018-12-16T17:45:08.619Z,79.90
2018-12-16T17:47:38.295Z,80.50
2018-12-16T17:50:06.642Z,78.70
2018-12-16T17:52:36.578Z,75.52
2018-12-16T17:55:05.326Z,99.90
2018-12-16T17:57:34.949Z,69.62
2018-12-16T18:00:03.438Z,55.78
2018-12-16T18:02:33.701Z,94.83
2018-12-16T18:05:01.906Z,55.67
2018-12-16T18:07:31.899Z,77.27
2018-12-16T18:10:00.318Z,77.47
2018-12-16T18:12:30.282Z,91.42
2018-12-16T18:14:58.515Z,56.80
2018-12-16T18:17:28.221Z,70.62
2018-12-16T18:19:56.426Z,58.98
2018-12-16T18:22:26.193Z,68.90
2018-12-16T18:24:54.403Z,59.38
2018-12-16T18:27:24.029Z,75.67
2018-12-16T18:29:52.234Z,87.53
2018-12-16T18:32:20.463Z,66.70
2018-12-16T18:34:49.898Z,97.72
2018-12-16T18:37:18.341Z,124.75
2018-12-16T18:39:46.541Z,77.27
2018-12-16T18:42:15.991Z,75.62
2018-12-16T18:44:44.216Z,64.40
2018-12-16T18:47:13.741Z,73.20
2018-12-16T18:49:41.942Z,62.58
2018-12-16T18:52:11.499Z,77.60
2018-12-16T18:54:39.698Z,86.50
2018-12-16T18:57:07.931Z,79.07
2018-12-16T18:59:36.153Z,78.05
2018-12-16T19:02:05.682Z,93.33
2018-12-16T19:04:33.914Z,83.92
2018-12-16T19:07:03.447Z,74.10
2018-12-16T19:09:31.703Z,77.15
2018-12-16T19:11:59.938Z,80.80
2018-12-16T19:14:28.606Z,66.28
2018-12-16T19:16:58.237Z,80.97
2018-12-16T19:19:26.467Z,60.67
2018-12-16T19:21:55.977Z,71.17
2018-12-16T19:24:24.203Z,62.98
2018-12-16T19:26:58.125Z,98.05
2018-12-16T19:29:23.994Z,91.28
2018-12-16T19:31:53.624Z,92.95
2018-12-16T19:34:21.846Z,69.92
2018-12-16T19:36:51.373Z,52.55
2018-12-16T19:39:19.629Z,77.40
2018-12-16T19:41:48.211Z,84.15
2018-12-16T19:44:16.463Z,87.70
2018-12-16T19:46:44.667Z,92.20
2018-12-16T19:49:12.922Z,89.90
2018-12-16T19:51:42.459Z,88.78
2018-12-16T19:54:10.690Z,88.97
2018-12-16T19:56:38.893Z,86.22
2018-12-16T19:59:07.145Z,65.65
2018-12-16T20:01:36.757Z,93.55
2018-12-16T20:04:10.711Z,85.00
2018-12-16T20:06:44.033Z,108.87
2018-12-16T20:09:12.578Z,86.70
2018-12-16T20:11:42.802Z,86.92
2018-12-16T20:14:11.042Z,61.40
2018-12-16T20:16:40.486Z,50.58
2018-12-16T20:19:08.714Z,56.15
2018-12-16T20:21:36.920Z,58.98
2018-12-16T20:24:05.164Z,62.65
2018-12-16T20:26:33.390Z,74.92
2018-12-16T20:29:01.707Z,48.45
2018-12-16T20:31:31.461Z,43.87
2018-12-16T20:33:59.761Z,48.48
2018-12-16T20:36:29.238Z,39.15
2018-12-16T20:38:59.256Z,38.13
2018-12-16T20:41:29.008Z,43.80
2018-12-16T20:43:57.202Z,59.03
2018-12-16T20:46:25.425Z,41.25
2018-12-16T20:48:54.324Z,38.15
2018-12-16T20:51:23.829Z,49.08
2018-12-16T20:53:52.528Z,68.60
2018-12-16T20:56:21.320Z,51.08
2018-12-16T20:58:49.542Z,45.50
2018-12-16T21:01:19.092Z,67.10
2018-12-16T21:03:47.405Z,42.65
2018-12-16T21:06:17.166Z,47.67
2018-12-16T21:08:45.403Z,43.68
2018-12-16T21:11:20.913Z,36.85
2018-12-16T21:13:54.828Z,36.13
2018-12-16T21:16:29.994Z,38.48
2018-12-16T21:18:58.204Z,41.88
2018-12-16T21:21:26.441Z,70.12
2018-12-16T21:23:54.727Z,44.60
2018-12-16T21:26:24.282Z,58.28
2018-12-16T21:28:52.540Z,52.00
2018-12-16T21:31:22.205Z,51.55
2018-12-16T21:33:50.426Z,38.65
2018-12-16T21:36:19.987Z,60.15
2018-12-16T21:38:48.181Z,43.87
2018-12-16T21:41:17.747Z,41.73
2018-12-16T21:43:45.945Z,40.03
2018-12-16T21:46:15.410Z,41.68
2018-12-16T21:48:43.614Z,46.30
2018-12-16T21:51:11.810Z,45.52
2018-12-16T21:53:40.054Z,45.60
2018-12-16T21:56:08.251Z,42.75
2018-12-16T21:58:36.476Z,49.73
2018-12-16T22:01:04.815Z,67.90
2018-12-16T22:03:33.166Z,45.10
2018-12-16T22:06:02.708Z,48.20
2018-12-16T22:08:31.068Z,60.23
2018-12-16T22:10:59.289Z,53.95
2018-12-16T22:13:27.519Z,44.25
2018-12-16T22:15:57.044Z,53.55
2018-12-16T22:18:25.290Z,65.55
2018-12-16T22:20:53.486Z,58.00
2018-12-16T22:23:21.719Z,67.12
2018-12-16T22:25:49.926Z,56.40
2018-12-16T22:28:18.146Z,51.30
2018-12-16T22:30:47.906Z,46.75
2018-12-16T22:33:16.171Z,43.73
2018-12-16T22:35:45.702Z,67.20
2018-12-16T22:38:14.060Z,49.88
2018-12-16T22:40:43.814Z,46.28
2018-12-16T22:43:12.047Z,55.45
2018-12-16T22:45:40.249Z,53.38
2018-12-16T22:48:08.880Z,43.58
2018-12-16T22:50:38.401Z,49.10
2018-12-16T22:53:06.596Z,47.43
2018-12-16T22:55:36.156Z,43.28
2018-12-16T22:58:04.347Z,41.33
2018-12-16T23:00:36.028Z,80.30
2018-12-16T23:03:06.249Z,69.53
2018-12-16T23:05:34.610Z,47.43
2018-12-16T23:08:02.933Z,44.60
2018-12-16T23:10:32.794Z,44.40
2018-12-16T23:13:01.125Z,47.73
2018-12-16T23:15:30.267Z,47.35
2018-12-16T23:17:58.746Z,52.48
2018-12-16T23:20:28.620Z,44.40
2018-12-16T23:22:57.047Z,61.20
2018-12-16T23:25:25.412Z,46.92
2018-12-16T23:27:54.307Z,62.27
2018-12-16T23:30:23.006Z,49.00
2018-12-16T23:32:52.065Z,51.23
2018-12-16T23:35:20.428Z,41.98
2018-12-16T23:37:49.963Z,53.52
2018-12-16T23:40:18.214Z,59.00
2018-12-16T23:42:48.040Z,73.07
2018-12-16T23:45:16.267Z,47.45
2018-12-16T23:47:45.897Z,59.35
2018-12-16T23:50:14.125Z,80.53
2018-12-16T23:52:43.936Z,73.55
2018-12-16T23:55:12.186Z,58.95
2018-12-16T23:57:42.113Z,65.70
